Time;durP1;ratioP1;P1;durP2;ratioP2;P2;SDS_P1;SDS_P2;PMS_P1;PMS_P2;Temp;Humidity;BMP_temperature;BMP_pressure;BME280_temperature;BME280_humidity;BME280_pressure;Samples;Min_cycle;Max_cycle;Signal;HPM_P1;HPM_P2
2023/02/23 00:02:09;;;;;;;;;2.67;2.00;;;;;20.98;41.49;101236.78;5037508;28;45177;-74
2023/02/23 00:04:35;;;;;;;;;1.67;1.67;;;;;20.96;41.59;101229.88;5037753;28;45990;-74
2023/02/23 00:07:00;;;;;;;;;3.50;2.00;;;;;20.70;41.67;101192.97;5037659;28;45424;-74
2023/02/23 00:09:33;;;;;;;;;0.67;0.67;;;;;20.96;41.41;101232.50;5020116;28;45379;-74
2023/02/23 00:12:06;;;;;;;;;3.00;3.00;;;;;20.87;41.58;101216.81;5021173;28;45360;-74
2023/02/23 00:14:32;;;;;;;;;3.00;2.50;;;;;20.96;41.54;101231.69;5037410;28;47230;-74
2023/02/23 00:16:58;;;;;;;;;4.00;3.00;;;;;20.87;41.55;101217.59;5036521;28;45307;-74
2023/02/23 00:19:24;;;;;;;;;2.00;2.00;;;;;20.96;41.33;101229.88;5037818;28;45292;-74
2023/02/23 00:21:50;;;;;;;;;3.00;1.00;;;;;20.95;41.28;101232.66;5037484;28;45207;-74
2023/02/23 00:24:19;;;;;;;;;1.50;1.50;;;;;20.95;41.50;101230.00;5037358;28;46302;-74
2023/02/23 00:26:46;;;;;;;;;3.25;2.25;;;;;20.95;41.26;101236.13;5037423;28;45443;-74
2023/02/23 00:29:16;;;;;;;;;1.00;1.00;;;;;20.94;41.19;101228.38;5037643;28;45450;-74
2023/02/23 00:31:43;;;;;;;;;3.00;2.00;;;;;20.84;41.18;101213.47;5036958;28;45422;-73
2023/02/23 00:34:09;;;;;;;;;2.00;2.00;;;;;20.95;41.30;101233.50;5037131;28;46195;-74
2023/02/23 00:36:36;;;;;;;;;2.33;2.00;;;;;20.94;41.18;101231.84;5036898;28;45369;-74
2023/02/23 00:39:17;;;;;;;;;3.00;1.00;;;;;20.93;41.16;101234.66;5037282;28;45217;-73
2023/02/23 00:41:44;;;;;;;;;2.25;2.00;;;;;20.93;41.31;101235.47;5037116;28;45365;-74
2023/02/23 00:44:09;;;;;;;;;2.00;2.00;;;;;20.93;41.03;101237.28;5037037;28;46294;-74
2023/02/23 00:46:34;;;;;;;;;3.00;1.25;;;;;20.93;41.14;101239.94;5036582;28;45433;-74
2023/02/23 00:49:00;;;;;;;;;1.00;1.00;;;;;20.89;41.01;101242.09;5037296;28;45370;-74
2023/02/23 00:51:29;;;;;;;;;2.00;2.00;;;;;20.91;41.31;101247.22;5037342;28;45344;-72
2023/02/23 00:53:56;;;;;;;;;3.00;2.00;;;;;20.91;41.10;101240.13;5036671;28;46233;-74
2023/02/23 00:56:22;;;;;;;;;2.00;2.00;;;;;20.91;41.00;101239.28;5036867;28;45286;-74
2023/02/23 00:58:48;;;;;;;;;1.00;1.00;;;;;20.89;41.31;101247.38;5037156;28;45512;-74
2023/02/23 01:01:14;;;;;;;;;2.67;2.00;;;;;20.89;41.32;101233.34;5036581;28;45498;-74
2023/02/23 01:03:41;;;;;;;;;2.00;2.00;;;;;20.87;41.26;101236.13;5036422;28;46560;-74
2023/02/23 01:06:09;;;;;;;;;2.00;2.00;;;;;20.89;41.21;101241.28;5036878;28;45289;-74
2023/02/23 01:08:38;;;;;;;;;1.33;1.33;;;;;20.88;41.01;101237.78;5036989;28;45390;-74
2023/02/23 01:11:09;;;;;;;;;1.50;1.50;;;;;20.88;41.03;101240.44;5036725;28;45347;-74
2023/02/23 01:13:36;;;;;;;;;1.50;1.00;;;;;20.88;41.24;101234.31;5036591;28;46139;-74
2023/02/23 01:16:10;;;;;;;;;2.00;1.67;;;;;20.87;41.00;101235.31;5036367;28;45339;-74
2023/02/23 01:18:38;;;;;;;;;3.00;2.33;;;;;20.80;41.28;101224.53;5036717;28;45382;-74
2023/02/23 01:21:04;;;;;;;;;2.00;2.00;;;;;20.82;41.28;101222.56;5036628;28;45329;-74
2023/02/23 01:23:30;;;;;;;;;1.33;1.33;;;;;20.85;41.31;101233.66;5018583;28;45958;-73
2023/02/23 01:25:56;;;;;;;;;2.33;1.00;;;;;20.85;41.25;101240.75;5036490;28;45326;-74
2023/02/23 01:28:22;;;;;;;;;2.00;2.00;;;;;20.86;41.40;101237.13;5035511;28;45434;-74
2023/02/23 01:30:47;;;;;;;;;2.00;2.00;;;;;20.85;41.18;101238.94;5036323;28;45474;-74
2023/02/23 01:33:13;;;;;;;;;2.00;2.00;;;;;20.84;41.13;101245.22;5036335;28;47262;-74
2023/02/23 01:35:38;;;;;;;;;2.00;2.00;;;;;20.84;40.89;101239.91;5036255;28;45248;-74
2023/02/23 01:38:03;;;;;;;;;2.00;1.67;;;;;20.84;40.93;101242.56;5036539;28;45246;-74
2023/02/23 01:40:30;;;;;;;;;1.67;1.00;;;;;20.84;40.97;101236.47;5018524;28;45495;-74
2023/02/23 01:42:59;;;;;;;;;1.67;1.67;;;;;20.84;41.27;101241.75;5017611;28;47651;-73
2023/02/23 01:45:35;;;;;;;;;1.00;1.00;;;;;20.82;40.79;101235.78;5036322;28;45346;-75
2023/02/23 01:48:13;;;;;;;;;1.33;1.33;;;;;20.84;41.05;101241.75;5036236;28;45415;-75
2023/02/23 01:50:47;;;;;;;;;1.33;0.67;;;;;20.83;41.13;101232.16;5036324;28;45402;-72
2023/02/23 01:53:13;;;;;;;;;4.00;2.00;;;;;20.84;40.94;101237.28;5035988;28;46044;-74
2023/02/23 01:55:39;;;;;;;;;3.00;2.67;;;;;20.84;40.62;101237.28;5036154;28;45274;-74
2023/02/23 01:58:14;;;;;;;;;2.00;2.00;;;;;20.68;41.08;101209.00;5035727;28;45308;-73
2023/02/23 02:00:42;;;;;;;;;2.50;2.50;;;;;20.84;40.74;101236.47;5036356;28;45238;-74
2023/02/23 02:03:14;;;;;;;;;1.67;1.67;;;;;20.75;40.69;101225.03;5035849;28;46201;-74
2023/02/23 02:05:40;;;;;;;;;1.00;1.00;;;;;20.79;40.93;101226.34;5035973;28;45328;-74
2023/02/23 02:08:09;;;;;;;;;1.00;1.00;;;;;20.84;40.70;101228.53;5036133;28;45326;-73
2023/02/23 02:10:38;;;;;;;;;2.00;2.00;;;;;20.84;40.69;101224.06;5035942;28;45398;-73
2023/02/23 02:13:05;;;;;;;;;1.00;1.00;;;;;20.80;40.92;101221.91;5035412;28;46152;-74
2023/02/23 02:15:37;;;;;;;;;2.00;2.00;;;;;20.83;41.12;101227.69;5035605;28;45761;-74
2023/02/23 02:18:11;;;;;;;;;2.00;1.00;;;;;20.83;40.75;101232.16;5017979;28;45402;-73
2023/02/23 02:21:10;;;;;;;;;2.25;1.75;;;;;20.82;40.66;101226.03;5035770;28;45299;-73
2023/02/23 02:23:51;;;;;;;;;2.00;1.67;;;;;20.82;40.67;101231.31;5035406;28;47137;-74
2023/02/23 02:26:49;;;;;;;;;2.00;2.00;;;;;20.82;40.92;101226.03;5035489;28;45307;-74
2023/02/23 02:30:09;;;;;;;;;1.00;1.00;;;;;20.81;40.66;101231.50;4935213;28;45353;-72
2023/02/23 02:32:49;;;;;;;;;2.00;2.00;;;;;20.80;40.57;101230.66;4840714;29;45424;-73
2023/02/23 02:35:36;;;;;;;;;1.00;1.00;;;;;20.80;41.06;101227.19;4840494;29;46183;-75
2023/02/23 02:38:33;;;;;;;;;2.00;2.00;;;;;20.79;40.88;101218.41;4840485;29;45391;-74
2023/02/23 02:41:07;;;;;;;;;2.00;2.00;;;;;20.78;40.51;101224.72;4846188;29;45413;-74
2023/02/23 02:43:53;;;;;;;;;2.00;2.00;;;;;20.79;40.93;101220.25;4860141;29;45463;-74
2023/02/23 02:46:33;;;;;;;;;3.00;1.75;;;;;20.68;40.60;101198.44;4865180;29;47417;-74
2023/02/23 02:49:05;;;;;;;;;4.25;1.50;;;;;20.78;40.67;101218.59;4865446;29;45364;-73
2023/02/23 02:51:51;;;;;;;;;2.33;1.33;;;;;20.69;41.13;101202.72;4865374;29;45365;-74
2023/02/23 02:54:30;;;;;;;;;1.00;1.00;;;;;20.72;41.08;101212.13;4865432;29;45424;-74
2023/02/23 02:56:59;;;;;;;;;2.00;2.00;;;;;20.77;40.79;101214.28;4864833;29;46104;-74
2023/02/23 04:17:58;;;;;;;;;0.75;0.75;;;;;20.71;40.32;101245.69;5037428;28;45258;-73
2023/02/23 04:20:24;;;;;;;;;2.25;1.00;;;;;20.71;40.45;101253.59;5037522;28;45439;-73
2023/02/23 04:22:50;;;;;;;;;2.50;2.25;;;;;20.71;40.33;101256.25;5037358;28;45487;-73
2023/02/23 04:25:18;;;;;;;;;1.00;1.00;;;;;20.71;40.41;101260.75;5037533;28;45387;-74
2023/02/23 04:27:43;;;;;;;;;2.50;1.00;;;;;20.70;40.39;101265.19;5037177;28;46290;-73
2023/02/23 04:30:10;;;;;;;;;1.00;1.00;;;;;20.71;40.42;101271.31;5037258;28;45236;-73
2023/02/23 04:32:35;;;;;;;;;2.00;2.00;;;;;20.70;40.45;101261.72;5037591;28;45390;-73
2023/02/23 04:35:01;;;;;;;;;4.25;2.50;;;;;20.71;40.26;101266.03;5037127;28;45928;-73
2023/02/23 04:37:26;;;;;;;;;3.00;2.00;;;;;20.58;40.16;101250.63;5036784;28;47015;-73
2023/02/23 04:39:51;;;;;;;;;2.00;2.00;;;;;20.70;40.31;101267.00;5037255;28;45362;-73
2023/02/23 04:42:17;;;;;;;;;2.00;1.00;;;;;20.70;40.27;101267.84;5037364;28;45498;-73
2023/02/23 04:44:43;;;;;;;;;2.00;2.00;;;;;20.43;40.25;101223.97;5037352;28;45591;-74
2023/02/23 04:47:09;;;;;;;;;2.00;2.00;;;;;20.70;40.13;101264.34;5037166;28;47171;-73
2023/02/23 04:49:34;;;;;;;;;2.50;2.00;;;;;20.68;40.32;101266.34;5037133;28;45375;-74
2023/02/23 04:51:59;;;;;;;;;2.75;2.00;;;;;20.72;40.16;101271.13;5036909;28;45409;-74
2023/02/23 04:54:25;;;;;;;;;2.00;1.00;;;;;20.59;40.06;101252.25;5037181;28;45264;-74
2023/02/23 04:56:50;;;;;;;;;3.50;2.00;;;;;20.65;40.29;101270.13;5036815;28;45322;-74
2023/02/23 04:59:16;;;;;;;;;3.00;2.00;;;;;20.71;40.09;101280.03;5037010;28;45332;-73
2023/02/23 05:01:41;;;;;;;;;1.25;0.75;;;;;20.71;40.17;101280.03;5036837;28;45339;-73
2023/02/23 05:04:06;;;;;;;;;2.25;1.00;;;;;20.71;40.03;101272.13;5019001;28;45285;-73
2023/02/23 05:06:32;;;;;;;;;3.00;2.00;;;;;20.72;40.06;101267.66;5036441;28;47094;-73
2023/02/23 05:08:57;;;;;;;;;2.00;2.00;;;;;20.72;40.08;101276.44;5036879;28;45292;-74
2023/02/23 05:11:23;;;;;;;;;4.50;4.00;;;;;20.72;40.18;101276.44;5036963;28;45681;-74
2023/02/23 05:13:49;;;;;;;;;4.00;1.50;;;;;20.69;39.84;101276.75;5037021;28;45567;-73
2023/02/23 05:16:14;;;;;;;;;2.00;2.00;;;;;20.72;40.08;101281.72;5036518;28;45329;-73
2023/02/23 05:18:39;;;;;;;;;3.25;2.00;;;;;20.71;40.10;101284.53;5036770;28;45239;-74
2023/02/23 05:21:07;;;;;;;;;4.00;3.00;;;;;20.69;40.08;101268.81;5036356;28;45280;-73
2023/02/23 05:23:34;;;;;;;;;3.00;2.00;;;;;20.71;40.23;101266.81;5036714;28;45341;-73
2023/02/23 05:26:11;;;;;;;;;2.75;2.75;;;;;20.71;40.22;101266.03;5036352;28;47561;-74
2023/02/23 05:28:38;;;;;;;;;3.50;3.50;;;;;20.72;40.09;101254.44;5036398;28;45339;-73
2023/02/23 05:31:04;;;;;;;;;2.50;2.50;;;;;20.71;39.93;101264.19;5036489;28;45448;-72
2023/02/23 05:33:30;;;;;;;;;2.00;1.50;;;;;20.71;40.11;101266.81;5036365;28;45471;-73
2023/02/23 05:35:56;;;;;;;;;1.25;1.25;;;;;20.71;40.09;101255.44;5035825;28;46277;-74
2023/02/23 05:38:21;;;;;;;;;1.00;1.00;;;;;20.63;39.84;101259.69;5036325;28;45363;-73
2023/02/23 05:40:47;;;;;;;;;2.25;2.25;;;;;20.61;39.79;101251.09;5036355;28;45371;-72
2023/02/23 05:43:12;;;;;;;;;4.00;3.00;;;;;20.69;39.72;101265.34;5036315;28;45310;-74
2023/02/23 05:45:43;;;;;;;;;2.50;2.00;;;;;20.70;39.79;101270.47;5018284;28;46994;-73
2023/02/23 05:48:10;;;;;;;;;3.00;2.00;;;;;20.70;39.93;101259.06;5036244;28;45297;-74
2023/02/23 05:50:35;;;;;;;;;2.00;2.00;;;;;20.70;39.92;101265.19;5035896;28;45382;-73
2023/02/23 05:53:01;;;;;;;;;2.00;2.00;;;;;20.69;40.13;101262.69;5036167;28;45313;-73
2023/02/23 05:55:27;;;;;;;;;5.75;2.75;;;;;20.69;40.08;101267.97;5036013;28;46414;-73
2023/02/23 05:57:52;;;;;;;;;4.00;2.00;;;;;20.68;39.95;101261.88;5036026;28;45343;-73
2023/02/23 06:00:18;;;;;;;;;1.00;1.00;;;;;20.68;39.86;101266.34;5036258;28;45636;-73
2023/02/23 06:02:43;;;;;;;;;3.00;3.00;;;;;20.68;39.75;101264.53;5036062;28;45423;-73
2023/02/23 06:05:10;;;;;;;;;2.75;2.00;;;;;20.67;40.06;101268.16;5035513;28;45464;-73
2023/02/23 06:07:36;;;;;;;;;1.00;1.00;;;;;20.67;39.96;101270.78;5035738;28;45339;-73
2023/02/23 06:10:01;;;;;;;;;1.25;1.25;;;;;20.67;39.86;101275.25;5036030;28;45248;-74
2023/02/23 06:12:27;;;;;;;;;2.25;2.25;;;;;20.66;40.08;101279.69;5035946;28;45438;-73
2023/02/23 06:14:52;;;;;;;;;3.25;2.00;;;;;20.62;40.37;101283.66;5035136;28;46180;-73
2023/02/23 06:17:17;;;;;;;;;3.25;3.25;;;;;20.62;39.76;101281.84;5035672;28;45287;-73
2023/02/23 06:19:43;;;;;;;;;4.00;3.00;;;;;20.67;39.90;101285.81;5035534;28;45551;-73
2023/02/23 06:22:08;;;;;;;;;3.50;2.25;;;;;20.59;40.04;101279.53;5035884;28;45398;-73
2023/02/23 06:24:33;;;;;;;;;4.25;2.25;;;;;20.68;39.71;101292.78;5035682;28;45410;-73
2023/02/23 06:26:59;;;;;;;;;2.75;2.75;;;;;20.68;39.90;101301.53;5035578;28;45396;-73
2023/02/23 06:29:25;;;;;;;;;4.00;2.00;;;;;20.67;39.80;101306.97;5035826;28;45353;-73
2023/02/23 06:31:51;;;;;;;;;1.25;1.00;;;;;20.68;39.73;101301.53;5035647;28;45537;-73
2023/02/23 06:34:16;;;;;;;;;3.00;3.00;;;;;20.69;39.86;101307.63;5035017;28;45472;-73
2023/02/23 06:36:41;;;;;;;;;2.00;2.00;;;;;20.67;39.74;101299.88;5035378;28;45326;-73
2023/02/23 06:39:10;;;;;;;;;2.50;1.00;;;;;20.70;39.96;101306.66;5035627;28;45334;-73
2023/02/23 06:41:35;;;;;;;;;4.00;2.75;;;;;20.65;39.71;101301.03;5035514;28;45411;-73
2023/02/23 06:44:00;;;;;;;;;2.50;2.50;;;;;20.69;39.54;101310.28;5017384;28;46334;-73
2023/02/23 06:46:26;;;;;;;;;4.50;2.25;;;;;20.70;39.63;101318.06;5035481;28;45442;-73
2023/02/23 06:48:55;;;;;;;;;3.00;3.00;;;;;20.69;39.71;101318.22;5035390;28;45331;-73
2023/02/23 06:51:21;;;;;;;;;3.00;3.00;;;;;20.70;39.87;101315.44;5035457;28;45500;-73
2023/02/23 06:53:46;;;;;;;;;3.00;3.00;;;;;20.69;39.54;101318.22;5035272;28;45341;-73
2023/02/23 06:56:12;;;;;;;;;4.25;3.00;;;;;20.70;39.58;101328.66;5035241;28;45346;-73
2023/02/23 06:58:39;;;;;;;;;1.00;1.00;;;;;20.68;39.78;101324.50;5034604;28;45535;-73
2023/02/23 07:01:05;;;;;;;;;3.00;3.00;;;;;20.70;39.71;101335.75;5035444;28;45426;-73
2023/02/23 07:03:31;;;;;;;;;2.00;2.00;;;;;20.69;39.88;101331.44;5034605;28;45383;-73
2023/02/23 07:05:56;;;;;;;;;2.00;2.00;;;;;20.68;39.56;101329.78;5035200;28;45393;-73
2023/02/23 07:08:21;;;;;;;;;4.00;3.00;;;;;20.69;39.82;101334.06;5035153;28;45358;-73
2023/02/23 07:10:47;;;;;;;;;4.00;2.50;;;;;20.66;39.89;101329.13;5035319;28;45172;-73
2023/02/23 07:13:12;;;;;;;;;2.25;2.00;;;;;20.68;39.83;101337.72;5035114;28;45295;-79
2023/02/23 07:15:39;;;;;;;;;3.50;3.00;;;;;20.68;40.03;101340.38;5034994;28;45361;-76
2023/02/23 07:18:05;;;;;;;;;4.00;4.00;;;;;20.67;39.62;101344.00;5034883;28;45229;-78
2023/02/23 07:20:31;;;;;;;;;4.00;4.00;;;;;20.65;39.87;101349.44;5035039;28;45463;-77
2023/02/23 07:22:57;;;;;;;;;3.25;3.25;;;;;20.66;39.71;101347.66;5034678;28;45415;-77
2023/02/23 07:25:22;;;;;;;;;4.50;3.25;;;;;20.65;40.23;101354.75;5035000;28;45342;-76
2023/02/23 07:27:48;;;;;;;;;3.50;3.50;;;;;20.67;40.25;101346.63;5037970;28;45327;-75
2023/02/23 07:30:14;;;;;;;;;3.00;3.00;;;;;20.67;40.42;101349.28;5038393;28;45417;-76
2023/02/23 07:32:40;;;;;;;;;4.00;3.00;;;;;20.68;40.50;101348.31;5037934;28;45455;-75
2023/02/23 07:35:06;;;;;;;;;6.25;3.50;;;;;20.64;40.48;101342.50;5020465;28;45537;-79
2023/02/23 07:37:31;;;;;;;;;6.25;3.00;;;;;20.68;40.57;101348.31;5038448;28;45398;-80
2023/02/23 07:39:56;;;;;;;;;3.50;3.50;;;;;20.64;40.52;101334.56;5038275;28;45446;-83
2023/02/23 07:42:22;;;;;;;;;3.25;3.25;;;;;20.69;40.65;101340.19;5037902;28;46047;-76
2023/02/23 07:44:48;;;;;;;;;4.75;3.25;;;;;20.71;40.64;101334.78;5037849;28;45753;-73
2023/02/23 07:47:13;;;;;;;;;3.50;3.50;;;;;20.70;40.36;101336.59;5037798;28;45520;-75
2023/02/23 07:49:39;;;;;;;;;4.00;4.00;;;;;20.62;40.21;101328.59;5038305;28;45494;-75
2023/02/23 07:52:04;;;;;;;;;2.00;2.00;;;;;20.72;40.37;101354.91;5023276;28;45494;-75
2023/02/23 07:54:29;;;;;;;;;5.00;3.50;;;;;20.60;40.24;101336.72;5027284;28;45650;-78
2023/02/23 07:56:55;;;;;;;;;6.25;5.00;;;;;20.72;40.53;101368.16;5034086;28;46344;-80
2023/02/23 07:59:21;;;;;;;;;7.00;5.00;;;;;20.72;40.45;101370.78;5034130;28;45350;-80
2023/02/23 08:01:46;;;;;;;;;2.75;2.75;;;;;20.72;40.49;101374.28;5033204;28;46266;-80
2023/02/23 08:04:11;;;;;;;;;3.75;3.75;;;;;20.73;40.01;101369.81;5033619;28;45419;-80
2023/02/23 08:06:37;;;;;;;;;4.50;4.25;;;;;20.71;40.11;101364.66;5033672;28;45547;-80
2023/02/23 08:09:04;;;;;;;;;5.75;3.00;;;;;20.72;40.35;101368.97;5033749;28;45528;-79
2023/02/23 08:11:29;;;;;;;;;4.50;3.25;;;;;20.73;40.29;101373.28;5033607;28;45506;-79
2023/02/23 08:13:58;;;;;;;;;3.25;3.25;;;;;20.73;40.11;101364.53;5033195;28;45431;-79
2023/02/23 08:16:26;;;;;;;;;2.25;2.00;;;;;20.63;40.38;101359.38;5033348;28;45395;-80
2023/02/23 08:18:51;;;;;;;;;3.25;3.25;;;;;20.73;40.30;101378.59;5015641;28;45552;-80
2023/02/23 08:21:16;;;;;;;;;4.67;2.33;;;;;20.74;40.25;101380.22;5033991;28;46030;-80
2023/02/23 08:23:42;;;;;;;;;4.00;4.00;;;;;20.73;40.26;101381.22;5032321;28;45432;-78
2023/02/23 08:26:07;;;;;;;;;3.75;3.75;;;;;20.65;40.44;101375.06;5033320;28;45968;-80
2023/02/23 08:28:32;;;;;;;;;4.75;4.25;;;;;20.72;40.22;101391.94;5033313;28;45570;-79
2023/02/23 08:30:58;;;;;;;;;5.00;4.00;;;;;20.71;40.13;101396.41;5032386;28;45383;-79
2023/02/23 08:33:23;;;;;;;;;4.50;4.50;;;;;20.63;40.29;101391.91;5033500;28;45848;-79
2023/02/23 08:35:49;;;;;;;;;6.00;4.25;;;;;20.69;39.98;101408.13;5033451;28;45498;-79
2023/02/23 08:38:17;;;;;;;;;3.75;3.50;;;;;20.71;40.11;101414.09;5032787;28;45679;-79
2023/02/23 08:40:42;;;;;;;;;6.75;4.25;;;;;20.69;40.36;101410.75;5032755;28;46341;-80
2023/02/23 08:43:07;;;;;;;;;5.00;5.00;;;;;20.70;39.88;101413.25;5032842;28;46545;-80
2023/02/23 08:45:33;;;;;;;;;4.25;3.25;;;;;20.70;39.92;101415.91;5032606;28;45326;-79
2023/02/23 08:47:58;;;;;;;;;3.25;3.25;;;;;20.70;40.08;101420.38;5033213;28;45811;-79
2023/02/23 08:50:23;;;;;;;;;5.25;5.25;;;;;20.70;39.84;101409.78;5032582;28;46444;-80
2023/02/23 08:52:48;;;;;;;;;4.00;4.00;;;;;20.66;39.72;101397.88;5032610;28;46396;-79
2023/02/23 08:55:16;;;;;;;;;4.00;4.00;;;;;20.71;39.78;101393.75;5033304;28;45812;-80
2023/02/23 08:57:42;;;;;;;;;4.00;3.75;;;;;20.68;39.74;101385.31;5032516;28;45858;-80
2023/02/23 09:00:12;;;;;;;;;5.50;3.75;;;;;20.71;40.12;101395.59;5031668;28;45455;-79
2023/02/23 09:02:40;;;;;;;;;4.25;3.75;;;;;20.63;39.97;101385.81;5032777;28;45856;-79
2023/02/23 09:05:06;;;;;;;;;5.00;4.75;;;;;20.71;39.97;101406.16;5032263;28;45997;-79
2023/02/23 09:07:31;;;;;;;;;4.25;4.25;;;;;20.71;39.74;101404.31;5032312;28;45531;-79
2023/02/23 09:09:57;;;;;;;;;4.00;4.00;;;;;20.71;40.00;101412.25;5031833;28;45990;-75
2023/02/23 09:12:23;;;;;;;;;5.25;4.50;;;;;20.71;40.11;101409.63;5032133;28;45599;-75
2023/02/23 09:14:49;;;;;;;;;4.25;4.25;;;;;20.71;39.70;101417.56;5033049;28;45723;-77
2023/02/23 09:17:16;;;;;;;;;7.25;5.25;;;;;20.61;39.75;101388.59;5032651;28;45505;-78
2023/02/23 09:19:41;;;;;;;;;5.75;5.00;;;;;20.64;40.00;101395.38;5031952;28;45521;-78
2023/02/23 09:22:06;;;;;;;;;6.00;6.00;;;;;20.70;39.97;101405.34;5030326;28;45706;-78
2023/02/23 09:24:32;;;;;;;;;6.75;5.00;;;;;20.73;40.00;101412.97;5032857;28;45564;-78
2023/02/23 09:26:57;;;;;;;;;4.25;4.25;;;;;20.74;39.66;101422.53;5031725;28;45432;-78
2023/02/23 09:29:22;;;;;;;;;4.75;4.00;;;;;20.74;39.99;101411.94;5032519;28;46631;-77
2023/02/23 09:31:50;;;;;;;;;7.25;5.75;;;;;20.75;39.91;101407.50;5032202;28;45989;-78
2023/02/23 09:34:15;;;;;;;;;5.00;5.00;;;;;20.76;39.98;101403.88;5033095;28;45332;-77
2023/02/23 09:36:40;;;;;;;;;6.50;5.00;;;;;20.78;39.87;101406.34;5032085;28;45780;-78
2023/02/23 09:39:06;;;;;;;;;4.75;4.00;;;;;20.79;39.82;101397.44;5032291;28;46325;-78
2023/02/23 09:41:58;;;;;;;;;6.75;5.25;;;;;20.81;39.67;101401.59;5031685;28;45967;-78
2023/02/23 09:44:35;;;;;;;;;5.00;3.00;;;;;20.82;39.72;101405.88;5029405;28;45311;-78
2023/02/23 09:47:18;;;;;;;;;4.00;4.00;;;;;20.83;39.93;101396.97;5032193;28;46422;-78
2023/02/23 09:49:46;;;;;;;;;4.25;4.00;;;;;20.82;40.11;101400.59;5030575;28;46257;-78
2023/02/23 09:52:18;;;;;;;;;6.00;5.75;;;;;20.77;39.83;101396.75;5032414;28;45959;-78
2023/02/23 09:54:45;;;;;;;;;5.50;5.50;;;;;20.85;39.91;101410.84;5031271;28;45349;-78
2023/02/23 09:57:17;;;;;;;;;6.75;4.50;;;;;20.79;39.71;101400.91;5031942;28;45213;-77
2023/02/23 09:59:44;;;;;;;;;6.75;5.00;;;;;20.85;40.01;101413.50;5031413;28;47167;-77
2023/02/23 10:02:35;;;;;;;;;4.00;3.75;;;;;20.87;40.06;101409.88;5031784;28;45465;-78
2023/02/23 10:05:04;;;;;;;;;8.50;4.50;;;;;20.87;39.97;101415.97;5031856;28;45429;-77
2023/02/23 10:07:54;;;;;;;;;5.00;3.50;;;;;20.87;40.01;101415.97;5031746;28;45510;-78
2023/02/23 10:10:32;;;;;;;;;4.25;2.25;;;;;20.87;39.85;101409.88;5032076;28;46351;-79
2023/02/23 10:13:11;;;;;;;;;7.25;5.50;;;;;20.84;39.90;101403.91;5031848;28;46667;-78
2023/02/23 10:15:56;;;;;;;;;4.00;4.00;;;;;20.85;39.93;101410.84;5031060;28;45606;-79
2023/02/23 10:18:32;;;;;;;;;6.50;6.00;;;;;20.85;39.71;101413.50;5031513;28;45557;-79
2023/02/23 10:21:21;;;;;;;;;5.75;5.75;;;;;20.85;39.77;101416.16;5031132;28;46371;-77
2023/02/23 10:24:03;;;;;;;;;7.50;3.50;;;;;20.87;39.50;101415.16;5031924;28;45511;-78
2023/02/23 10:26:53;;;;;;;;;6.00;5.00;;;;;20.86;39.77;101411.69;5030272;28;45436;-77
2023/02/23 10:29:18;;;;;;;;;4.50;4.50;;;;;20.84;39.56;101411.03;5024234;28;45619;-78
2023/02/23 10:31:48;;;;;;;;;7.00;5.25;;;;;20.85;39.56;101408.22;5031353;28;46125;-78
2023/02/23 10:34:16;;;;;;;;;6.00;4.00;;;;;20.85;39.93;101418.78;5031828;28;45493;-77
2023/02/23 10:36:56;;;;;;;;;8.50;5.50;;;;;20.86;39.89;101422.28;5031034;28;45302;-78
2023/02/23 10:39:22;;;;;;;;;8.25;4.75;;;;;20.86;39.76;101411.69;5030624;28;45484;-79
2023/02/23 10:41:47;;;;;;;;;5.00;4.25;;;;;20.83;40.11;101418.13;5031160;28;47337;-77
2023/02/23 10:44:23;;;;;;;;;5.25;4.00;;;;;20.84;39.99;101419.75;5025659;28;45782;-78
2023/02/23 10:46:54;;;;;;;;;5.75;4.50;;;;;20.85;39.68;101413.50;5031788;28;45794;-79
2023/02/23 10:49:24;;;;;;;;;7.25;6.50;;;;;20.85;40.10;101424.06;5028232;28;45534;-78
2023/02/23 10:51:57;;;;;;;;;4.75;4.00;;;;;20.85;39.87;101428.53;5031383;28;45411;-77
2023/02/23 10:54:46;;;;;;;;;4.00;3.25;;;;;20.85;39.79;101436.47;5029671;28;45327;-76
2023/02/23 10:57:29;;;;;;;;;4.75;4.75;;;;;20.78;39.89;101419.56;5022003;28;45542;-77
2023/02/23 11:00:26;;;;;;;;;6.00;4.50;;;;;20.84;39.83;101429.53;5031528;28;45496;-77
2023/02/23 11:02:52;;;;;;;;;7.50;5.75;;;;;20.84;39.61;101440.13;5034386;28;46111;-78
2023/02/23 11:05:30;;;;;;;;;8.00;5.50;;;;;20.84;39.74;101446.22;5035111;28;45452;-78
2023/02/23 11:08:14;;;;;;;;;5.00;4.50;;;;;20.85;39.59;101449.69;5034830;28;45348;-77
2023/02/23 11:10:40;;;;;;;;;6.25;5.25;;;;;20.84;39.85;101458.63;5034098;28;45307;-77
2023/02/23 11:13:05;;;;;;;;;4.75;4.50;;;;;20.84;39.84;101446.22;5034204;28;45358;-78
2023/02/23 11:15:34;;;;;;;;;6.25;5.75;;;;;20.86;39.91;101456.66;5033946;28;45767;-77
2023/02/23 11:18:04;;;;;;;;;4.50;4.50;;;;;20.85;40.10;101453.16;5034610;28;45530;-77
2023/02/23 11:20:41;;;;;;;;;5.50;4.75;;;;;20.85;39.56;101452.34;5034349;28;45406;-77
2023/02/23 11:23:30;;;;;;;;;5.75;4.75;;;;;20.84;39.92;101448.84;5033528;28;46967;-77
2023/02/23 11:26:01;;;;;;;;;8.25;5.00;;;;;20.84;39.72;101446.22;5034196;28;45505;-77
2023/02/23 11:28:33;;;;;;;;;6.25;4.75;;;;;20.85;39.58;101447.88;5033507;28;45422;-77
2023/02/23 11:31:14;;;;;;;;;5.25;5.25;;;;;20.85;40.01;101439.94;5034007;28;45405;-77
2023/02/23 11:33:40;;;;;;;;;4.25;4.00;;;;;20.76;39.92;101422.38;5033676;28;46141;-77
2023/02/23 11:36:13;;;;;;;;;5.50;5.50;;;;;20.85;39.48;101437.31;5033744;28;45685;-77
2023/02/23 11:38:39;;;;;;;;;8.25;6.75;;;;;20.87;39.71;101423.09;5033683;28;45645;-76
2023/02/23 11:41:22;;;;;;;;;6.00;6.00;;;;;20.87;39.85;101423.09;5033975;28;45381;-77
2023/02/23 11:43:50;;;;;;;;;8.25;6.50;;;;;20.87;39.89;101426.56;5029975;28;46396;-77
2023/02/23 11:46:18;;;;;;;;;5.50;4.50;;;;;20.86;39.78;101424.91;5034249;28;45521;-76
2023/02/23 11:48:47;;;;;;;;;4.75;4.75;;;;;20.88;39.80;101425.56;5033670;28;45796;-75
2023/02/23 11:51:40;;;;;;;;;7.75;6.00;;;;;20.88;39.67;101420.28;5033725;28;45520;-77
2023/02/23 11:54:21;;;;;;;;;8.50;5.25;;;;;20.89;39.99;101421.97;5033279;28;46187;-77
2023/02/23 11:56:53;;;;;;;;;7.75;6.75;;;;;20.90;39.52;101428.06;5034312;28;45432;-76
2023/02/23 11:59:30;;;;;;;;;7.00;5.00;;;;;20.80;39.52;101418.44;5034270;28;45385;-78
2023/02/23 12:02:18;;;;;;;;;5.50;5.50;;;;;20.91;39.92;101435.84;5033585;28;45612;-78
2023/02/23 12:04:48;;;;;;;;;4.00;3.50;;;;;20.91;39.97;101438.50;5029933;28;47254;-75
2023/02/23 12:07:25;;;;;;;;;9.25;6.50;;;;;20.93;39.88;101439.16;5029784;28;45443;-75
2023/02/23 12:10:05;;;;;;;;;8.50;4.75;;;;;20.93;39.88;101433.88;5030372;28;45486;-75
2023/02/23 12:12:41;;;;;;;;;7.50;5.25;;;;;20.94;39.56;101437.34;5029933;28;45610;-75
2023/02/23 12:15:27;;;;;;;;;6.75;6.00;;;;;20.92;39.80;101432.19;5033663;28;45453;-74
2023/02/23 12:17:59;;;;;;;;;5.75;4.75;;;;;20.95;40.18;101434.53;5030777;28;45524;-75
2023/02/23 12:20:29;;;;;;;;;2.00;2.00;;;;;20.94;39.83;101437.34;5032726;28;45285;-75
2023/02/23 12:23:09;;;;;;;;;5.75;5.00;;;;;20.97;40.04;101437.03;5032829;28;45584;-75
2023/02/23 12:26:09;;;;;;;;;7.50;5.75;;;;;20.98;40.15;101430.75;5032655;28;45537;-75
2023/02/23 12:28:46;;;;;;;;;5.00;5.00;;;;;21.00;40.10;101418.19;5030811;28;45391;-75
2023/02/23 12:31:27;;;;;;;;;5.00;5.00;;;;;21.01;39.96;101414.59;5033198;28;45338;-75
2023/02/23 12:33:58;;;;;;;;;7.50;5.75;;;;;21.02;40.20;101418.06;5032770;28;45470;-75
2023/02/23 12:36:34;;;;;;;;;7.50;4.00;;;;;20.96;39.76;101398.34;5031820;28;46125;-75
2023/02/23 12:39:16;;;;;;;;;6.00;5.00;;;;;20.96;39.94;101395.69;5032724;28;45818;-75
2023/02/23 12:41:54;;;;;;;;;8.75;7.00;;;;;21.01;39.96;101411.94;5031086;28;45451;-75
2023/02/23 12:44:36;;;;;;;;;6.25;6.00;;;;;20.98;39.71;101401.63;5029775;28;45440;-75
2023/02/23 12:47:19;;;;;;;;;6.50;6.50;;;;;20.92;40.29;101389.06;5032927;28;46356;-74
2023/02/23 12:49:51;;;;;;;;;5.00;4.75;;;;;21.04;39.84;101402.84;5032400;28;45484;-74
2023/02/23 12:52:24;;;;;;;;;8.50;7.25;;;;;21.03;39.84;101396.72;5029778;28;46070;-74
2023/02/23 12:54:50;;;;;;;;;8.50;7.00;;;;;21.04;39.92;101385.16;5032041;28;45499;-75
2023/02/23 12:57:41;;;;;;;;;5.75;5.75;;;;;21.06;40.00;101380.53;5032786;28;46466;-74